createdAt,value
2022-10-11T00:02:27.114Z,16.87
2022-10-11T00:05:01.148Z,16.30
2022-10-11T00:07:31.135Z,16.63
2022-10-11T00:10:05.386Z,16.70
2022-10-11T00:12:34.266Z,15.80
2022-10-11T00:15:03.103Z,15.33
2022-10-11T00:17:36.210Z,15.93
2022-10-11T00:20:11.041Z,14.77
2022-10-11T00:22:41.960Z,16.67
2022-10-11T00:25:29.714Z,16.50
2022-10-11T00:28:16.447Z,12.97
2022-10-11T00:31:09.015Z,14.87
2022-10-11T00:33:58.203Z,13.63
2022-10-11T00:36:45.683Z,13.90
2022-10-11T00:39:32.597Z,12.90
2022-10-11T00:42:19.943Z,15.17
2022-10-11T00:45:44.579Z,13.20
2022-10-11T00:48:35.454Z,15.43
2022-10-11T00:51:27.073Z,14.27
2022-10-11T00:54:17.821Z,14.57
2022-10-11T00:57:07.679Z,15.17
2022-10-11T00:59:55.718Z,13.53
2022-10-11T01:02:43.662Z,13.90
2022-10-11T01:05:31.054Z,14.47
2022-10-11T01:08:19.894Z,14.60
2022-10-11T01:11:07.411Z,15.03
2022-10-11T01:14:07.654Z,14.50
2022-10-11T01:16:59.482Z,15.40
2022-10-11T01:19:55.282Z,16.03
2022-10-11T01:23:05.046Z,14.93
2022-10-11T01:26:11.304Z,13.73
2022-10-11T01:29:07.593Z,15.00
2022-10-11T01:32:02.049Z,14.60
2022-10-11T01:34:57.034Z,15.50
2022-10-11T01:37:48.289Z,14.80
2022-10-11T01:40:38.258Z,16.40
2022-10-11T01:43:25.738Z,18.57
2022-10-11T01:46:13.304Z,17.40
2022-10-11T01:49:03.265Z,18.30
2022-10-11T01:51:52.402Z,18.53
2022-10-11T01:55:09.262Z,17.97
2022-10-11T01:58:08.732Z,17.00
2022-10-11T02:01:00.507Z,18.30
2022-10-11T02:03:50.569Z,16.40
2022-10-11T02:06:45.964Z,16.90
2022-10-11T02:09:36.662Z,15.97
2022-10-11T02:12:27.629Z,16.67
2022-10-11T02:15:15.618Z,16.50
2022-10-11T02:18:07.390Z,16.60
2022-10-11T02:20:54.482Z,17.37
2022-10-11T02:23:49.074Z,19.13
2022-10-11T02:26:36.380Z,17.80
2022-10-11T02:29:24.683Z,16.50
2022-10-11T02:32:11.832Z,17.83
2022-10-11T02:35:00.490Z,16.50
2022-10-11T02:37:51.434Z,17.93
2022-10-11T02:40:42.493Z,17.40
2022-10-11T02:43:33.736Z,17.30
2022-10-11T02:46:21.109Z,17.40
2022-10-11T02:49:08.792Z,18.53
2022-10-11T02:51:56.625Z,17.03
2022-10-11T02:54:43.826Z,18.90
2022-10-11T02:57:31.811Z,17.70
2022-10-11T03:00:18.968Z,17.40
2022-10-11T03:03:06.185Z,16.70
2022-10-11T03:05:59.556Z,17.70
2022-10-11T03:08:46.926Z,16.70
2022-10-11T03:11:34.121Z,16.93
2022-10-11T03:14:22.178Z,18.17
2022-10-11T03:17:31.417Z,18.50
2022-10-11T03:20:16.264Z,17.10
2022-10-11T03:23:03.875Z,17.97
2022-10-11T03:25:52.146Z,17.00
2022-10-11T03:28:41.413Z,16.80
2022-10-11T03:31:29.978Z,17.47
2022-10-11T03:34:17.019Z,18.00
2022-10-11T03:37:03.725Z,17.50
2022-10-11T03:39:50.690Z,18.60
2022-10-11T03:42:38.193Z,17.97
2022-10-11T03:45:24.989Z,16.47
2022-10-11T03:48:13.937Z,15.87
2022-10-11T03:51:01.500Z,16.43
2022-10-11T03:53:51.593Z,17.07
2022-10-11T03:56:41.973Z,18.27
2022-10-11T03:59:29.409Z,16.20
2022-10-11T04:02:16.331Z,16.37
2022-10-11T04:05:06.593Z,17.30
2022-10-11T04:07:53.850Z,19.00
2022-10-11T04:10:41.261Z,16.63
2022-10-11T04:13:27.945Z,18.70
2022-10-11T04:16:15.153Z,18.73
2022-10-11T04:19:02.568Z,17.47
2022-10-11T04:21:50.928Z,17.37
2022-10-11T04:24:38.035Z,16.70
2022-10-11T04:27:25.114Z,17.53
2022-10-11T04:30:13.618Z,18.10
2022-10-11T04:33:11.626Z,18.37
2022-10-11T04:36:01.045Z,18.07
2022-10-11T04:38:49.649Z,16.83
2022-10-11T04:41:36.746Z,18.40
2022-10-11T04:44:23.817Z,17.33
2022-10-11T04:47:10.610Z,18.27
2022-10-11T04:49:57.831Z,16.70
2022-10-11T04:52:44.817Z,16.00
2022-10-11T04:55:32.942Z,16.30
2022-10-11T04:58:20.012Z,17.43
2022-10-11T05:01:07.019Z,17.60
2022-10-11T05:03:54.246Z,16.23
2022-10-11T05:06:41.074Z,17.23
2022-10-11T05:09:27.875Z,17.77
2022-10-11T05:12:16.074Z,17.97
2022-10-11T05:15:03.419Z,17.47
2022-10-11T05:17:50.146Z,16.53
2022-10-11T05:20:37.056Z,17.13
2022-10-11T05:23:24.256Z,17.70
2022-10-11T05:26:11.343Z,15.50
2022-10-11T05:29:00.141Z,17.37
2022-10-11T05:31:47.437Z,16.33
2022-10-11T05:34:34.721Z,18.20
2022-10-11T05:37:21.617Z,17.27
2022-10-11T05:40:11.072Z,16.37
2022-10-11T05:42:58.346Z,15.93
2022-10-11T05:45:47.625Z,16.73
2022-10-11T05:48:35.489Z,18.03
2022-10-11T05:51:23.061Z,16.80
2022-10-11T05:54:09.882Z,16.90
2022-10-11T05:56:57.032Z,17.97
2022-10-11T05:59:44.283Z,17.20
2022-10-11T06:02:32.433Z,15.60
2022-10-11T06:05:19.831Z,17.43
2022-10-11T06:08:08.985Z,15.70
2022-10-11T06:10:56.283Z,15.23
2022-10-11T06:13:43.743Z,16.57
2022-10-11T06:16:30.953Z,16.97
2022-10-11T06:19:21.073Z,17.20
2022-10-11T06:22:12.263Z,17.07
2022-10-11T06:24:59.294Z,16.77
2022-10-11T06:27:46.405Z,16.23
2022-10-11T06:30:33.621Z,14.80
2022-10-11T06:33:20.577Z,15.73
2022-10-11T06:36:12.243Z,16.07
2022-10-11T06:39:01.473Z,15.60
2022-10-11T06:41:48.170Z,16.33
2022-10-11T06:44:35.126Z,14.90
2022-10-11T06:47:22.350Z,16.50
2022-10-11T06:50:09.752Z,18.93
2022-10-11T06:52:58.014Z,16.80
2022-10-11T06:55:45.287Z,15.77
2022-10-11T06:58:32.958Z,16.63
2022-10-11T07:01:21.674Z,14.97
2022-10-11T07:04:08.979Z,14.97
2022-10-11T07:06:55.792Z,15.23
2022-10-11T07:09:44.184Z,15.37
2022-10-11T07:12:31.292Z,13.80
2022-10-11T07:15:18.465Z,15.13
2022-10-11T07:18:05.842Z,15.03
2022-10-11T07:20:52.729Z,14.93
2022-10-11T07:23:39.521Z,14.93
2022-10-11T07:26:32.494Z,13.73
2022-10-11T07:29:24.038Z,14.40
2022-10-11T07:32:10.778Z,13.43
2022-10-11T07:34:57.726Z,12.90
2022-10-11T07:37:45.149Z,13.20
2022-10-11T07:40:32.035Z,13.17
2022-10-11T07:43:20.579Z,12.60
2022-10-11T07:46:08.275Z,12.93
2022-10-11T07:48:56.419Z,13.67
2022-10-11T07:51:43.265Z,13.20
2022-10-11T07:54:30.139Z,13.40
2022-10-11T07:57:17.525Z,13.37
2022-10-11T08:00:07.209Z,14.30
2022-10-11T08:02:58.940Z,13.47
2022-10-11T08:05:45.810Z,13.00
2022-10-11T08:08:33.611Z,12.93
2022-10-11T08:11:22.257Z,13.50
2022-10-11T08:14:11.354Z,14.13
2022-10-11T08:16:59.769Z,13.47
2022-10-11T08:19:46.375Z,13.53
2022-10-11T08:22:33.470Z,12.83
2022-10-11T08:25:20.537Z,14.60
2022-10-11T08:28:07.921Z,13.40
2022-10-11T08:30:55.993Z,13.80
2022-10-11T08:33:44.210Z,12.27
2022-10-11T08:36:31.174Z,13.80
2022-10-11T08:39:18.127Z,13.70
2022-10-11T08:42:08.556Z,14.20
2022-10-11T08:45:10.512Z,13.87
2022-10-11T08:48:04.193Z,13.50
2022-10-11T08:50:55.802Z,12.67
2022-10-11T08:53:50.162Z,12.47
2022-10-11T08:56:40.001Z,13.53
2022-10-11T08:59:32.697Z,12.50
2022-10-11T09:02:55.654Z,13.93
2022-10-11T09:05:49.774Z,12.63
2022-10-11T09:08:50.798Z,14.53
2022-10-11T09:11:49.019Z,12.63
2022-10-11T09:14:50.055Z,12.87
2022-10-11T09:17:57.178Z,12.80
2022-10-11T09:20:57.503Z,13.37
2022-10-11T09:24:03.969Z,11.97
2022-10-11T09:26:37.417Z,12.87
2022-10-11T09:29:09.717Z,11.83
2022-10-11T09:31:38.087Z,12.10
2022-10-11T09:34:12.196Z,10.40
2022-10-11T09:36:43.090Z,11.50
2022-10-11T09:39:21.824Z,11.20
2022-10-11T09:41:55.355Z,13.03
2022-10-11T09:44:25.677Z,11.50
2022-10-11T09:46:55.923Z,11.37
2022-10-11T09:49:28.978Z,8.20
2022-10-11T09:51:59.108Z,7.63
2022-10-11T09:54:40.525Z,7.20
2022-10-11T09:57:20.377Z,7.93
2022-10-11T10:00:03.721Z,6.80
2022-10-11T10:02:47.013Z,10.10
2022-10-11T10:05:18.947Z,7.90
2022-10-11T10:08:07.221Z,8.07
2022-10-11T10:10:39.921Z,8.53
2022-10-11T10:13:21.920Z,6.57
2022-10-11T10:15:53.589Z,7.70
2022-10-11T10:18:25.748Z,6.90
2022-10-11T10:20:55.658Z,7.60
2022-10-11T10:23:26.203Z,8.87
2022-10-11T10:26:11.209Z,7.50
2022-10-11T10:28:40.138Z,7.43
2022-10-11T10:31:22.483Z,8.57
2022-10-11T10:33:52.941Z,8.37
2022-10-11T10:36:24.816Z,8.30
2022-10-11T10:38:58.539Z,8.97
2022-10-11T10:41:28.414Z,8.47
2022-10-11T10:43:58.586Z,8.17
2022-10-11T10:46:35.154Z,8.00
2022-10-11T10:49:34.922Z,8.83
2022-10-11T10:52:21.613Z,7.90
2022-10-11T10:54:56.159Z,7.50
2022-10-11T10:57:29.825Z,7.90
2022-10-11T11:00:06.915Z,8.23
2022-10-11T11:02:43.836Z,7.90
2022-10-11T11:05:22.925Z,7.17
2022-10-11T11:07:53.533Z,7.53
2022-10-11T11:10:25.062Z,7.43
2022-10-11T11:13:02.721Z,7.17
2022-10-11T11:15:38.325Z,6.53
2022-10-11T11:18:20.356Z,7.43
2022-10-11T11:20:56.660Z,7.03
2022-10-11T11:23:31.829Z,6.70
2022-10-11T11:26:08.089Z,6.30
2022-10-11T11:28:48.867Z,7.13
2022-10-11T11:31:34.967Z,6.17
2022-10-11T11:34:06.930Z,6.37
2022-10-11T11:36:40.429Z,6.50
2022-10-11T11:39:13.693Z,7.10
2022-10-11T11:41:45.005Z,6.00
2022-10-11T11:44:20.896Z,6.33
2022-10-11T11:46:56.676Z,6.67
2022-10-11T11:49:29.583Z,5.77
2022-10-11T11:51:58.548Z,6.43
2022-10-11T11:54:37.358Z,6.03
2022-10-11T11:57:13.217Z,6.00
2022-10-11T11:59:47.257Z,5.50
2022-10-11T12:02:44.211Z,5.70
2022-10-11T12:05:14.891Z,6.00
2022-10-11T12:07:51.252Z,5.63
2022-10-11T12:10:32.632Z,5.27
2022-10-11T12:13:09.165Z,4.93
2022-10-11T12:15:39.316Z,5.30
2022-10-11T12:18:16.373Z,6.23
2022-10-11T12:20:45.480Z,5.43
2022-10-11T12:23:40.051Z,5.27
2022-10-11T12:26:32.210Z,6.10
2022-10-11T12:29:28.877Z,6.30
2022-10-11T12:34:52.863Z,6.20
2022-10-11T12:37:50.749Z,5.10
2022-10-11T12:40:37.263Z,5.60
2022-10-11T12:43:42.060Z,4.90
2022-10-11T12:46:40.459Z,5.37
2022-10-11T12:49:43.204Z,5.87
2022-10-11T12:52:27.053Z,5.90
2022-10-11T12:55:19.232Z,5.20
2022-10-11T12:58:24.957Z,5.13
2022-10-11T13:01:13.377Z,4.53
2022-10-11T13:03:43.106Z,5.83
2022-10-11T13:06:13.699Z,6.50
2022-10-11T13:08:45.885Z,6.10
2022-10-11T13:11:19.449Z,5.40
2022-10-11T13:13:52.035Z,5.90
2022-10-11T13:16:22.429Z,5.57
2022-10-11T13:18:56.623Z,5.27
2022-10-11T13:21:32.116Z,6.03
2022-10-11T13:24:03.867Z,6.20
2022-10-11T13:26:32.729Z,6.20
2022-10-11T13:29:01.588Z,6.17
2022-10-11T13:31:29.965Z,6.40
2022-10-11T13:34:00.251Z,5.93
2022-10-11T13:36:29.058Z,5.87
2022-10-11T13:38:59.035Z,7.10
2022-10-11T13:41:30.912Z,7.33
2022-10-11T13:44:00.546Z,7.33
2022-10-11T13:46:30.635Z,7.30
2022-10-11T13:49:03.206Z,7.07
2022-10-11T13:51:36.373Z,6.40
2022-10-11T13:54:09.461Z,7.33
2022-10-11T13:56:47.734Z,6.50
2022-10-11T13:59:19.394Z,6.57
2022-10-11T14:01:48.342Z,7.40
2022-10-11T14:04:18.381Z,6.50
2022-10-11T14:06:49.673Z,6.23
2022-10-11T14:09:21.520Z,7.57
2022-10-11T14:11:51.529Z,6.13
2022-10-11T14:14:31.044Z,7.10
2022-10-11T14:17:01.241Z,6.37
2022-10-11T14:19:29.678Z,6.13
2022-10-11T14:21:58.009Z,6.70
2022-10-11T14:24:26.437Z,6.50
2022-10-11T14:26:56.420Z,6.60
2022-10-11T14:29:26.574Z,7.43
2022-10-11T14:31:56.634Z,6.77
2022-10-11T14:34:25.973Z,6.90
2022-10-11T14:36:54.329Z,6.97
2022-10-11T14:39:23.796Z,6.90
2022-10-11T14:41:53.192Z,6.23
2022-10-11T14:44:23.364Z,6.90
2022-10-11T14:46:54.818Z,7.30
2022-10-11T14:49:25.240Z,6.80
2022-10-11T14:51:54.894Z,8.00
2022-10-11T14:54:24.470Z,7.17
2022-10-11T14:56:54.254Z,6.67
2022-10-11T14:59:25.867Z,7.87
2022-10-11T15:01:54.724Z,7.50
2022-10-11T15:04:23.497Z,6.70
2022-10-11T15:06:52.965Z,7.27
2022-10-11T15:09:21.921Z,6.80
2022-10-11T15:11:51.275Z,6.67
2022-10-11T15:14:19.539Z,7.03
2022-10-11T15:16:49.442Z,6.60
2022-10-11T15:19:18.938Z,7.53
2022-10-11T15:21:47.526Z,8.20
2022-10-11T15:24:16.156Z,6.80
2022-10-11T15:26:45.734Z,6.73
2022-10-11T15:29:14.253Z,7.90
2022-10-11T15:31:42.571Z,7.57
2022-10-11T15:34:12.476Z,7.27
2022-10-11T15:36:41.094Z,7.53
2022-10-11T15:39:24.218Z,7.23
2022-10-11T15:41:52.530Z,7.43
2022-10-11T15:44:21.471Z,7.53
2022-10-11T15:46:49.812Z,7.43
2022-10-11T15:49:19.755Z,7.17
2022-10-11T15:51:48.116Z,6.70
2022-10-11T15:54:16.476Z,7.07
2022-10-11T15:56:44.774Z,7.70
2022-10-11T15:59:13.045Z,8.30
2022-10-11T16:01:41.442Z,7.87
2022-10-11T16:04:10.593Z,7.33
2022-10-11T16:06:41.139Z,7.90
2022-10-11T16:09:09.544Z,9.83
2022-10-11T16:11:37.928Z,8.03
2022-10-11T16:14:06.240Z,7.87
2022-10-11T16:16:34.567Z,7.90
2022-10-11T16:19:02.905Z,7.40
2022-10-11T16:21:31.261Z,8.60
2022-10-11T16:24:02.383Z,8.23
2022-10-11T16:26:30.682Z,8.00
2022-10-11T16:29:00.337Z,8.33
2022-10-11T16:31:28.796Z,8.00
2022-10-11T16:33:57.689Z,8.53
2022-10-11T16:36:36.858Z,9.77
2022-10-11T16:39:13.412Z,8.47
2022-10-11T16:41:42.772Z,8.20
2022-10-11T16:44:17.566Z,9.00
2022-10-11T16:46:48.472Z,9.73
2022-10-11T16:49:20.333Z,9.03
2022-10-11T16:51:48.857Z,8.63
2022-10-11T16:54:20.768Z,8.67
2022-10-11T16:56:49.682Z,7.90
2022-10-11T16:59:18.536Z,8.37
2022-10-11T17:01:47.214Z,9.13
2022-10-11T17:04:15.856Z,7.80
2022-10-11T17:06:45.022Z,8.10
2022-10-11T17:09:13.447Z,8.63
2022-10-11T17:11:43.666Z,9.27
2022-10-11T17:14:12.834Z,10.30
2022-10-11T17:16:41.318Z,12.37
2022-10-11T17:19:11.398Z,10.03
2022-10-11T17:21:40.327Z,10.03
2022-10-11T17:24:10.359Z,10.00
2022-10-11T17:26:38.835Z,7.90
2022-10-11T17:29:09.090Z,9.67
2022-10-11T17:31:38.537Z,8.90
2022-10-11T17:34:07.164Z,9.40
2022-10-11T17:36:35.872Z,9.00
2022-10-11T17:39:06.632Z,9.13
2022-10-11T17:41:35.635Z,10.23
2022-10-11T17:44:04.637Z,9.70
2022-10-11T17:46:36.273Z,9.20
2022-10-11T17:49:06.993Z,8.27
2022-10-11T17:51:37.249Z,9.50
2022-10-11T17:54:06.724Z,10.57
2022-10-11T17:56:38.184Z,10.80
2022-10-11T17:59:09.914Z,11.60
2022-10-11T18:01:41.353Z,10.73
2022-10-11T18:04:17.446Z,10.07
2022-10-11T18:06:47.726Z,11.87
2022-10-11T18:09:18.997Z,12.77
2022-10-11T18:11:49.054Z,11.77
2022-10-11T18:14:21.924Z,12.97
2022-10-11T18:17:02.492Z,12.67
2022-10-11T18:19:31.767Z,12.00
2022-10-11T18:22:05.860Z,13.03
2022-10-11T18:24:38.156Z,13.53
2022-10-11T18:27:07.217Z,15.07
2022-10-11T18:29:37.182Z,13.03
2022-10-11T18:32:13.227Z,15.40
2022-10-11T18:34:42.888Z,14.80
2022-10-11T18:37:13.432Z,14.97
2022-10-11T18:39:42.632Z,15.10
2022-10-11T18:42:11.969Z,15.47
2022-10-11T18:44:43.848Z,15.90
2022-10-11T18:47:15.071Z,15.60
2022-10-11T18:49:44.500Z,17.70
2022-10-11T18:52:13.655Z,17.10
2022-10-11T18:54:44.130Z,16.97
2022-10-11T18:57:13.555Z,16.10
2022-10-11T18:59:43.038Z,16.20
2022-10-11T19:02:15.711Z,18.20
2022-10-11T19:04:47.904Z,17.63
2022-10-11T19:07:19.564Z,16.03
2022-10-11T19:09:50.087Z,18.70
2022-10-11T19:12:22.533Z,17.83
2022-10-11T19:14:52.806Z,16.37
2022-10-11T19:17:24.389Z,18.40
2022-10-11T19:19:53.621Z,17.00
2022-10-11T19:22:23.163Z,17.20
2022-10-11T19:24:52.827Z,16.70
2022-10-11T19:27:22.835Z,17.93
2022-10-11T19:29:52.320Z,18.63
2022-10-11T19:32:22.472Z,18.33
2022-10-11T19:34:52.602Z,20.77
2022-10-11T19:37:22.192Z,18.50
2022-10-11T19:39:51.103Z,22.07
2022-10-11T19:42:20.764Z,19.87
2022-10-11T19:44:50.502Z,19.20
2022-10-11T19:47:23.535Z,19.87
2022-10-11T19:49:56.990Z,19.70
2022-10-11T19:52:27.429Z,19.90
2022-10-11T19:54:58.873Z,19.10
2022-10-11T19:57:30.075Z,19.10
2022-10-11T20:00:00.751Z,19.17
2022-10-11T20:02:30.081Z,19.57
2022-10-11T20:05:00.937Z,19.30
2022-10-11T20:07:31.021Z,20.70
2022-10-11T20:10:01.849Z,19.83
2022-10-11T20:12:32.221Z,21.53
2022-10-11T20:15:01.032Z,21.30
2022-10-11T20:17:44.510Z,20.23
2022-10-11T20:20:14.796Z,20.33
2022-10-11T20:22:43.834Z,22.00
2022-10-11T20:25:12.618Z,21.10
2022-10-11T20:27:43.538Z,21.27
2022-10-11T20:30:14.774Z,22.00
2022-10-11T20:32:44.662Z,24.40
2022-10-11T20:35:15.920Z,22.20
2022-10-11T20:37:44.512Z,21.27
2022-10-11T20:40:14.479Z,23.27
2022-10-11T20:42:43.009Z,24.50
2022-10-11T20:45:13.636Z,23.80
2022-10-11T20:47:42.579Z,22.60
2022-10-11T20:50:11.110Z,24.60
2022-10-11T20:52:55.209Z,23.60
2022-10-11T20:55:23.646Z,22.57
2022-10-11T20:57:53.962Z,21.00
2022-10-11T21:00:23.302Z,21.33
2022-10-11T21:02:51.984Z,23.33
2022-10-11T21:05:20.480Z,21.30
2022-10-11T21:07:50.470Z,23.70
2022-10-11T21:10:23.420Z,24.43
2022-10-11T21:12:52.924Z,24.27
2022-10-11T21:15:24.748Z,22.67
2022-10-11T21:17:54.433Z,21.20
2022-10-11T21:20:23.024Z,22.90
2022-10-11T21:22:52.750Z,22.97
2022-10-11T21:25:21.440Z,22.40
2022-10-11T21:27:49.894Z,21.80
2022-10-11T21:30:18.651Z,21.87
2022-10-11T21:32:47.068Z,22.60
2022-10-11T21:35:15.510Z,24.57
2022-10-11T21:37:44.259Z,23.23
2022-10-11T21:40:13.977Z,25.63
2022-10-11T21:42:42.342Z,25.00
2022-10-11T21:45:10.791Z,27.60
2022-10-11T21:47:39.530Z,27.80
2022-10-11T21:50:09.005Z,28.37
2022-10-11T21:52:37.896Z,26.90
2022-10-11T21:55:06.873Z,24.87
2022-10-11T21:57:39.237Z,25.17
2022-10-11T22:00:08.978Z,25.10
2022-10-11T22:02:41.865Z,23.97
2022-10-11T22:05:10.350Z,25.43
2022-10-11T22:07:39.038Z,27.53
2022-10-11T22:10:07.876Z,27.97
2022-10-11T22:12:38.222Z,28.50
2022-10-11T22:15:08.025Z,27.90
2022-10-11T22:17:41.813Z,30.03
2022-10-11T22:20:10.913Z,29.27
2022-10-11T22:22:39.523Z,30.03
2022-10-11T22:25:09.122Z,27.53
2022-10-11T22:27:38.927Z,28.50
2022-10-11T22:30:08.405Z,26.77
2022-10-11T22:32:37.083Z,27.53
2022-10-11T22:35:06.175Z,25.60
2022-10-11T22:37:35.427Z,23.50
2022-10-11T22:40:04.431Z,25.43
2022-10-11T22:42:32.789Z,27.20
2022-10-11T22:45:02.608Z,26.07
2022-10-11T22:47:31.184Z,26.37
2022-10-11T22:49:59.550Z,25.13
2022-10-11T22:52:27.996Z,25.97
2022-10-11T22:54:59.253Z,26.27
2022-10-11T22:57:27.698Z,23.30
2022-10-11T22:59:56.060Z,23.30
2022-10-11T23:02:25.970Z,24.00
2022-10-11T23:04:54.635Z,22.50
2022-10-11T23:07:24.649Z,24.00
2022-10-11T23:09:53.154Z,23.10
2022-10-11T23:12:21.542Z,22.73
2022-10-11T23:14:49.922Z,23.73
2022-10-11T23:17:18.352Z,22.37
2022-10-11T23:19:48.351Z,22.03
2022-10-11T23:22:16.868Z,23.30
2022-10-11T23:24:45.119Z,21.80
2022-10-11T23:27:13.339Z,21.07
2022-10-11T23:29:41.682Z,22.23
2022-10-11T23:32:12.415Z,21.37
2022-10-11T23:34:40.778Z,23.57
2022-10-11T23:37:10.764Z,22.17
2022-10-11T23:39:39.209Z,22.17
2022-10-11T23:42:08.716Z,23.33
2022-10-11T23:44:37.066Z,21.03
2022-10-11T23:47:05.420Z,22.20
2022-10-11T23:49:33.955Z,22.83
2022-10-11T23:52:02.417Z,22.57
2022-10-11T23:54:32.299Z,21.53
2022-10-11T23:57:00.778Z,20.53
2022-10-11T23:59:29.730Z,21.70
